Terminal Aerodrome Forecast
Issued by NWS

Home | Current Version | Previous Version | Text Only | Print | Product List | Glossary On
Versions: 1 2 3 4 5 6 7 8 9 10 11 12 13 14 15 16 17 18
847
FTUS44 KBMX 171806 AAA
TAFTCL
TAF AMD
KTCL 171806Z 1718/1818 20008KT P6SM BKN030 BKN040
     FM180300 20003KT P6SM VCSH OVC015
     FM180600 31002KT 5SM BR VCSH OVC004
     FM181500 05002KT 5SM BR OVC007=

USA.gov is the U.S. government's official web portal to all federal, state and local government web resources and services.